createdAt,value
2022-12-19T00:08:39.603Z,100
2022-12-19T00:18:40.562Z,100
2022-12-19T00:28:40.842Z,100
2022-12-19T00:38:40.980Z,100
2022-12-19T01:08:42.496Z,100
2022-12-19T01:18:43.666Z,100
2022-12-19T01:28:43.448Z,100
2022-12-19T01:58:44.518Z,100
2022-12-19T02:18:45.267Z,100
2022-12-19T02:48:47.428Z,100
2022-12-19T03:08:49.008Z,100
2022-12-19T03:28:50.583Z,100
2022-12-19T03:38:51.050Z,100
2022-12-19T03:48:51.618Z,100
2022-12-19T03:58:52.173Z,100
2022-12-19T04:08:52.358Z,100
2022-12-19T04:18:52.561Z,100
2022-12-19T04:28:52.816Z,100
2022-12-19T04:38:52.920Z,100
2022-12-19T04:48:53.542Z,100
2022-12-19T04:58:53.859Z,100
2022-12-19T05:08:54.783Z,100
2022-12-19T05:18:55.637Z,100
2022-12-19T05:38:57.468Z,100
2022-12-19T05:48:58.276Z,100
2022-12-19T05:58:59.366Z,100
2022-12-19T06:19:00.561Z,100
2022-12-19T06:29:00.587Z,100
2022-12-19T06:39:01.149Z,100
2022-12-19T06:49:01.635Z,100
2022-12-19T06:59:01.523Z,100
2022-12-19T07:09:01.887Z,100
2022-12-19T07:19:02.413Z,100
2022-12-19T07:29:02.603Z,100
2022-12-19T07:39:02.739Z,100
2022-12-19T07:49:03.760Z,100
2022-12-19T07:59:04.126Z,100
2022-12-19T08:09:04.713Z,100
2022-12-19T08:19:05.570Z,100
2022-12-19T08:29:06.397Z,100
2022-12-19T08:39:07.147Z,100
2022-12-19T08:59:08.206Z,100
2022-12-19T09:19:08.660Z,100
2022-12-19T09:39:09.827Z,100
2022-12-19T09:59:11.759Z,100
2022-12-19T10:10:06.659Z,100
2022-12-19T10:19:12.965Z,100
2022-12-19T10:29:13.673Z,100
2022-12-19T10:39:14.571Z,100
2022-12-19T10:59:16.080Z,100
2022-12-19T11:09:16.552Z,100
2022-12-19T11:21:30.012Z,100
2022-12-19T11:31:50.202Z,100
2022-12-19T11:39:18.349Z,100
2022-12-19T11:49:18.619Z,100
2022-12-19T11:59:19.484Z,100
2022-12-19T12:10:49.405Z,100
2022-12-19T12:25:24.929Z,100
2022-12-19T12:31:33.512Z,100
2022-12-19T12:39:24.203Z,99
2022-12-19T12:49:21.900Z,99
2022-12-19T12:59:22.660Z,98
2022-12-19T13:09:23.657Z,97
2022-12-19T13:19:28.246Z,97
2022-12-19T13:29:24.974Z,96
2022-12-19T13:39:53.142Z,95
2022-12-19T13:49:26.240Z,95
2022-12-19T14:10:02.961Z,92
2022-12-19T14:19:28.114Z,92
2022-12-19T14:29:45.643Z,90
2022-12-19T14:39:29.952Z,89
2022-12-19T14:51:51.914Z,88
2022-12-19T14:59:30.780Z,89
2022-12-19T15:10:40.898Z,88
2022-12-19T15:19:31.830Z,87
2022-12-19T15:29:32.169Z,86
2022-12-19T15:39:32.306Z,86
2022-12-19T15:49:33.267Z,87
2022-12-19T16:09:34.394Z,85
2022-12-19T16:19:35.185Z,86
2022-12-19T16:29:39.496Z,86
2022-12-19T16:39:36.789Z,86
2022-12-19T16:49:37.398Z,87
2022-12-19T16:59:38.258Z,87
2022-12-19T17:09:39.070Z,87
2022-12-19T17:19:39.608Z,88
2022-12-19T17:29:39.930Z,88
2022-12-19T17:39:40.076Z,88
2022-12-19T17:49:40.410Z,88
2022-12-19T17:59:41.394Z,88
2022-12-19T18:09:42.467Z,88
2022-12-19T18:19:42.760Z,88
